createdAt,value
2023-02-25T00:01:38.896Z,93071.00
2023-02-25T00:04:05.930Z,93071.44
2023-02-25T00:06:33.105Z,93078.25
2023-02-25T00:09:01.013Z,93086.31
2023-02-25T00:11:28.307Z,93088.22
2023-02-25T00:13:55.411Z,93104.25
2023-02-25T00:16:24.332Z,93093.97
2023-02-25T00:18:58.818Z,93096.72
2023-02-25T00:21:27.000Z,93098.13
2023-02-25T00:23:54.111Z,93104.22
2023-02-25T00:26:22.468Z,93098.19
2023-02-25T00:28:50.169Z,93098.69
2023-02-25T00:31:24.078Z,93095.81
2023-02-25T00:33:53.645Z,93096.72
2023-02-25T00:36:26.614Z,93104.78
2023-02-25T00:38:57.108Z,93109.06
2023-02-25T00:41:28.601Z,93110.13
2023-02-25T00:43:59.574Z,93117.81
2023-02-25T00:46:27.918Z,93119.88
2023-02-25T00:48:55.043Z,93118.69
2023-02-25T00:51:25.902Z,93107.09
2023-02-25T00:53:54.127Z,93106.53
2023-02-25T00:56:21.704Z,93103.53
2023-02-25T00:58:51.033Z,93097.09
2023-02-25T01:01:26.047Z,93112.34
2023-02-25T01:03:56.526Z,93098.72
2023-02-25T01:06:25.876Z,93094.94
2023-02-25T01:08:53.273Z,93105.34
2023-02-25T01:11:27.536Z,93099.94
2023-02-25T01:13:56.903Z,93107.34
2023-02-25T01:16:27.012Z,93109.72
2023-02-25T01:19:00.545Z,93120.75
2023-02-25T01:21:35.369Z,93132.59
2023-02-25T01:26:53.284Z,93121.19
2023-02-25T01:29:28.860Z,93124.22
2023-02-25T01:31:59.967Z,93130.22
2023-02-25T01:34:28.859Z,93147.03
2023-02-25T01:36:56.441Z,93142.00
2023-02-25T01:39:26.340Z,93142.81
2023-02-25T01:41:56.416Z,93142.00
2023-02-25T01:44:33.825Z,93143.03
2023-02-25T01:47:01.529Z,93142.00
2023-02-25T01:49:45.037Z,93140.78
2023-02-25T01:52:19.274Z,93146.44
2023-02-25T01:54:50.856Z,93146.81
2023-02-25T01:57:19.354Z,93145.44
2023-02-25T01:59:47.842Z,93149.63
2023-02-25T02:02:20.033Z,93134.84
2023-02-25T02:04:51.191Z,93133.81
2023-02-25T02:07:21.863Z,93142.44
2023-02-25T02:09:58.401Z,93139.63
2023-02-25T02:12:46.877Z,93136.63
2023-02-25T02:15:15.833Z,93127.03
2023-02-25T02:18:03.821Z,93134.63
2023-02-25T02:21:17.892Z,93148.03
2023-02-25T02:23:57.020Z,93146.03
2023-02-25T02:26:54.117Z,93133.25
2023-02-25T02:30:05.204Z,93133.06
2023-02-25T02:32:47.390Z,93124.06
2023-02-25T02:35:35.337Z,93115.28
2023-02-25T02:38:49.829Z,93127.28
2023-02-25T02:41:26.890Z,93131.91
2023-02-25T02:44:37.111Z,93129.69
2023-02-25T02:47:17.111Z,93126.31
2023-02-25T02:49:57.145Z,93133.28
2023-02-25T02:52:29.577Z,93140.09
2023-02-25T02:55:25.393Z,93157.31
2023-02-25T02:58:09.755Z,93159.47
2023-02-25T03:00:47.786Z,93159.09
2023-02-25T03:03:23.054Z,93157.31
2023-02-25T03:05:53.325Z,93165.31
2023-02-25T03:08:25.728Z,93159.50
2023-02-25T03:10:52.812Z,93172.13
2023-02-25T03:13:21.680Z,93167.31
2023-02-25T03:15:50.277Z,93168.72
2023-02-25T03:18:38.992Z,93172.50
2023-02-25T03:21:15.859Z,93178.72
2023-02-25T03:23:46.570Z,93178.09
2023-02-25T03:26:26.886Z,93179.13
2023-02-25T03:28:59.197Z,93171.94
2023-02-25T03:31:34.228Z,93178.13
2023-02-25T03:34:09.122Z,93169.75
2023-02-25T03:37:16.704Z,93176.75
2023-02-25T03:39:50.415Z,93168.56
2023-02-25T03:42:24.445Z,93189.97
2023-02-25T03:44:58.706Z,93185.75
2023-02-25T03:47:29.236Z,93173.75
2023-02-25T03:50:26.391Z,93199.56
2023-02-25T03:52:58.349Z,93201.56
2023-02-25T03:55:51.938Z,93201.13
2023-02-25T03:58:19.203Z,93194.16
2023-02-25T04:00:49.404Z,93197.53
2023-02-25T04:03:16.855Z,93209.34
2023-02-25T04:05:43.832Z,93200.53
2023-02-25T04:08:15.858Z,93202.34
2023-02-25T04:10:45.861Z,93209.75
2023-02-25T04:13:16.208Z,93222.16
2023-02-25T04:15:44.094Z,93205.56
2023-02-25T04:18:11.164Z,93203.53
2023-02-25T04:20:39.157Z,93225.34
2023-02-25T04:23:06.340Z,93211.56
2023-02-25T04:25:34.330Z,93208.94
2023-02-25T04:28:01.275Z,93204.16
2023-02-25T04:30:28.279Z,93217.94
2023-02-25T04:32:55.405Z,93201.94
2023-02-25T04:35:22.288Z,93186.56
2023-02-25T04:37:49.199Z,93190.34
2023-02-25T04:40:22.329Z,93191.94
2023-02-25T04:42:50.173Z,93204.16
2023-02-25T04:45:17.475Z,93200.16
2023-02-25T04:47:44.514Z,93209.94
2023-02-25T04:50:12.629Z,93204.97
2023-02-25T04:52:39.726Z,93207.56
2023-02-25T04:55:09.824Z,93211.75
2023-02-25T04:57:42.252Z,93215.53
2023-02-25T05:00:19.031Z,93211.53
2023-02-25T05:02:50.495Z,93214.94
2023-02-25T05:05:18.458Z,93216.91
2023-02-25T05:07:45.779Z,93226.91
2023-02-25T05:10:17.611Z,93208.94
2023-02-25T05:12:45.227Z,93204.94
2023-02-25T05:15:12.511Z,93212.94
2023-02-25T05:17:39.881Z,93215.94
2023-02-25T05:20:12.228Z,93228.50
2023-02-25T05:22:42.889Z,93223.91
2023-02-25T05:25:11.112Z,93222.50
2023-02-25T05:27:38.176Z,93237.69
2023-02-25T05:30:06.142Z,93230.69
2023-02-25T05:32:33.617Z,93232.31
2023-02-25T05:35:00.644Z,93259.69
2023-02-25T05:37:27.692Z,93254.69
2023-02-25T05:39:54.733Z,93243.88
2023-02-25T05:42:21.856Z,93241.09
2023-02-25T05:44:48.934Z,93246.03
2023-02-25T05:47:16.600Z,93250.03
2023-02-25T05:49:43.712Z,93249.22
2023-02-25T05:52:12.900Z,93235.16
2023-02-25T05:54:40.229Z,93245.91
2023-02-25T05:57:07.135Z,93260.03
2023-02-25T05:59:36.595Z,93258.19
2023-02-25T06:02:04.324Z,93259.38
2023-02-25T06:04:31.363Z,93260.56
2023-02-25T06:06:58.288Z,93257.13
2023-02-25T06:09:26.835Z,93267.72
2023-02-25T06:11:53.821Z,93266.66
2023-02-25T06:14:21.101Z,93270.09
2023-02-25T06:16:48.214Z,93269.25
2023-02-25T06:19:15.298Z,93290.00
2023-02-25T06:21:42.206Z,93263.84
2023-02-25T06:24:10.607Z,93263.50
2023-02-25T06:26:42.039Z,93271.06
2023-02-25T06:29:10.280Z,93274.03
2023-02-25T06:31:37.311Z,93267.25
2023-02-25T06:34:05.403Z,93275.84
2023-02-25T06:36:33.736Z,93290.81
2023-02-25T06:39:01.302Z,93282.66
2023-02-25T06:41:28.540Z,93289.88
2023-02-25T06:43:57.381Z,93293.88
2023-02-25T06:46:27.170Z,93298.09
2023-02-25T06:48:54.661Z,93289.94
2023-02-25T06:51:22.261Z,93291.56
2023-02-25T06:53:50.992Z,93289.22
2023-02-25T06:56:21.124Z,93296.81
2023-02-25T06:58:49.000Z,93294.06
2023-02-25T07:01:17.529Z,93301.88
2023-02-25T07:03:45.181Z,93301.91
2023-02-25T07:06:15.699Z,93301.72
2023-02-25T07:08:42.906Z,93310.31
2023-02-25T07:11:18.812Z,93308.50
2023-02-25T07:13:50.026Z,93302.13
2023-02-25T07:16:18.008Z,93304.56
2023-02-25T07:18:45.363Z,93308.34
2023-02-25T07:21:13.606Z,93309.53
2023-02-25T07:23:41.584Z,93316.53
2023-02-25T07:26:11.936Z,93317.75
2023-02-25T07:28:39.411Z,93314.78
2023-02-25T07:31:19.358Z,93311.78
2023-02-25T07:33:46.932Z,93309.59
2023-02-25T07:36:15.570Z,93316.97
2023-02-25T07:38:43.205Z,93321.19
2023-02-25T07:41:13.212Z,93322.63
2023-02-25T07:43:40.694Z,93315.44
2023-02-25T07:46:08.713Z,93323.44
2023-02-25T07:48:36.153Z,93319.84
2023-02-25T07:51:29.456Z,93312.50
2023-02-25T07:53:58.162Z,93323.91
2023-02-25T07:56:28.418Z,93318.50
2023-02-25T07:58:55.662Z,93309.50
2023-02-25T08:01:29.829Z,93315.13
2023-02-25T08:04:06.899Z,93320.13
2023-02-25T08:06:40.887Z,93327.94
2023-02-25T08:09:13.667Z,93300.72
2023-02-25T08:11:41.559Z,93332.34
2023-02-25T08:14:08.484Z,93323.31
2023-02-25T08:16:35.412Z,93306.94
2023-02-25T08:19:03.814Z,93325.16
2023-02-25T08:21:31.069Z,93325.34
2023-02-25T08:23:58.649Z,93322.16
2023-02-25T08:26:27.503Z,93320.34
2023-02-25T08:28:56.395Z,93314.53
2023-02-25T08:31:23.857Z,93321.13
2023-02-25T08:33:52.858Z,93313.31
2023-02-25T08:36:27.604Z,93320.34
2023-02-25T08:38:57.396Z,93337.53
2023-02-25T08:41:27.096Z,93324.34
2023-02-25T08:43:58.163Z,93322.56
2023-02-25T08:46:31.051Z,93327.75
2023-02-25T08:48:58.531Z,93328.53
2023-02-25T08:51:33.864Z,93327.75
2023-02-25T08:54:11.022Z,93318.53
2023-02-25T08:56:45.983Z,93320.53
2023-02-25T08:59:15.424Z,93327.72
2023-02-25T09:01:46.162Z,93343.13
2023-02-25T09:04:25.463Z,93334.72
2023-02-25T09:06:54.085Z,93324.94
2023-02-25T09:09:22.001Z,93328.94
2023-02-25T09:11:49.171Z,93343.56
2023-02-25T09:14:16.910Z,93345.75
2023-02-25T09:16:44.387Z,93318.13
2023-02-25T09:19:12.576Z,93345.75
2023-02-25T09:21:42.996Z,93339.56
2023-02-25T09:24:10.548Z,93350.38
2023-02-25T09:26:37.546Z,93358.94
2023-02-25T09:29:06.577Z,93347.94
2023-02-25T09:31:36.975Z,93372.16
2023-02-25T09:34:08.099Z,93365.75
2023-02-25T09:36:36.188Z,93353.75
2023-02-25T09:39:03.781Z,93355.34
2023-02-25T09:41:46.551Z,93364.16
2023-02-25T09:44:27.901Z,93355.34
2023-02-25T09:47:10.468Z,93377.97
2023-02-25T09:49:50.732Z,93371.97
2023-02-25T09:52:32.948Z,93362.97
2023-02-25T09:55:16.163Z,93382.19
2023-02-25T09:57:54.193Z,93354.56
2023-02-25T10:00:23.567Z,93349.34
2023-02-25T10:03:05.778Z,93353.09
2023-02-25T10:05:55.940Z,93350.28
2023-02-25T10:08:38.196Z,93352.22
2023-02-25T10:11:13.766Z,93368.41
2023-02-25T10:14:13.506Z,93359.78
2023-02-25T10:16:54.816Z,93355.78
2023-02-25T10:20:07.297Z,93350.34
2023-02-25T10:22:51.784Z,93351.94
2023-02-25T10:25:48.261Z,93348.31
2023-02-25T10:28:17.958Z,93356.56
2023-02-25T10:31:12.406Z,93365.22
2023-02-25T10:33:42.790Z,93355.84
2023-02-25T10:36:34.991Z,93371.84
2023-02-25T10:39:02.006Z,93365.50
2023-02-25T10:41:29.964Z,93376.91
2023-02-25T10:43:57.903Z,93362.50
2023-02-25T10:46:56.202Z,93381.38
2023-02-25T10:49:30.078Z,93379.38
2023-02-25T10:51:58.507Z,93372.78
2023-02-25T10:54:28.484Z,93375.59
2023-02-25T10:56:55.883Z,93374.59
2023-02-25T10:59:39.251Z,93367.78
2023-02-25T11:02:23.820Z,93366.13
2023-02-25T11:04:52.536Z,93369.28
2023-02-25T11:07:31.288Z,93363.03
2023-02-25T11:10:22.617Z,93349.03
2023-02-25T11:12:55.246Z,93344.38
2023-02-25T11:15:45.183Z,93347.13
2023-02-25T11:18:27.928Z,93352.13
2023-02-25T11:21:09.467Z,93357.56
2023-02-25T11:23:47.113Z,93359.44
2023-02-25T11:26:38.017Z,93360.88
2023-02-25T11:29:28.816Z,93348.06
2023-02-25T11:32:19.029Z,93349.22
2023-02-25T11:35:08.988Z,93349.84
2023-02-25T11:37:40.939Z,93354.84
2023-02-25T11:40:27.984Z,93354.84
2023-02-25T11:43:05.305Z,93345.59
2023-02-25T11:45:49.548Z,93359.22
2023-02-25T11:48:25.660Z,93341.19
2023-02-25T11:51:33.048Z,93363.28
2023-02-25T11:54:11.426Z,93343.28
2023-02-25T11:56:49.393Z,93345.31
2023-02-25T11:59:32.738Z,93341.94
2023-02-25T12:02:39.748Z,93344.16
2023-02-25T12:05:43.328Z,93335.91
2023-02-25T12:08:43.725Z,93321.53
2023-02-25T12:12:01.166Z,93322.41
2023-02-25T12:15:08.280Z,93325.53
2023-02-25T12:17:58.949Z,93329.88
2023-02-25T12:21:02.156Z,93324.50
2023-02-25T12:24:01.087Z,93339.75
2023-02-25T12:27:16.519Z,93330.81
2023-02-25T12:30:46.148Z,93328.91
2023-02-25T12:34:03.709Z,93341.31
2023-02-25T12:36:49.782Z,93347.13
2023-02-25T12:39:49.404Z,93326.44
2023-02-25T12:42:53.238Z,93321.31
2023-02-25T12:45:53.747Z,93311.94
2023-02-25T12:48:48.245Z,93317.19
2023-02-25T12:51:45.471Z,93296.66
2023-02-25T12:54:49.523Z,93288.50
2023-02-25T12:58:04.845Z,93278.13
2023-02-25T13:01:45.454Z,93283.41
2023-02-25T13:04:30.292Z,93282.56
2023-02-25T13:07:22.692Z,93295.97
2023-02-25T13:10:23.960Z,93310.56
2023-02-25T13:13:42.363Z,93297.06
2023-02-25T13:16:12.534Z,93297.06
2023-02-25T13:19:02.712Z,93295.19
2023-02-25T13:21:57.352Z,93303.06
2023-02-25T13:25:00.229Z,93305.19
2023-02-25T13:28:05.657Z,93325.03
2023-02-25T13:30:58.030Z,93331.72
2023-02-25T13:33:46.182Z,93347.59
2023-02-25T13:37:05.657Z,93340.69
2023-02-25T13:40:39.322Z,93335.53
2023-02-25T13:44:03.431Z,93338.75
2023-02-25T13:46:48.562Z,93347.31
2023-02-25T13:49:27.673Z,93353.66
2023-02-25T13:52:22.399Z,93361.59
2023-02-25T13:55:40.703Z,93350.31
2023-02-25T13:58:28.678Z,93356.28
2023-02-25T14:01:22.827Z,93361.47
2023-02-25T14:04:08.935Z,93365.47
2023-02-25T14:07:29.825Z,93384.63
2023-02-25T14:10:37.915Z,93383.03
2023-02-25T14:13:44.080Z,93388.19
2023-02-25T14:16:53.317Z,93377.84
2023-02-25T14:19:50.074Z,93375.66
2023-02-25T14:22:56.019Z,93370.66
2023-02-25T14:25:48.462Z,93368.13
2023-02-25T14:28:31.509Z,93383.03
2023-02-25T14:31:25.568Z,93364.53
2023-02-25T14:34:28.372Z,93368.97
2023-02-25T14:37:22.128Z,93347.78
2023-02-25T14:40:21.628Z,93357.13
2023-02-25T14:43:24.345Z,93361.13
2023-02-25T14:46:09.523Z,93357.91
2023-02-25T14:48:48.397Z,93363.28
2023-02-25T14:52:09.263Z,93362.09
2023-02-25T14:55:16.212Z,93360.88
2023-02-25T14:58:23.051Z,93351.75
2023-02-25T15:00:58.483Z,93362.75
2023-02-25T15:04:23.085Z,93357.34
2023-02-25T15:07:17.319Z,93371.53
2023-02-25T15:10:25.804Z,93362.31
2023-02-25T15:13:23.591Z,93370.78
2023-02-25T15:16:08.582Z,93372.19
2023-02-25T15:18:58.333Z,93375.97
2023-02-25T15:21:38.925Z,93377.91
2023-02-25T15:24:41.425Z,93373.97
2023-02-25T15:27:45.207Z,93385.16
2023-02-25T15:30:16.616Z,93402.31
2023-02-25T15:32:58.004Z,93413.38
2023-02-25T15:35:37.285Z,93424.16
2023-02-25T15:38:18.366Z,93451.06
2023-02-25T15:40:55.398Z,93435.41
2023-02-25T15:43:36.507Z,93447.75
2023-02-25T15:46:09.581Z,93454.50
2023-02-25T15:48:39.692Z,93453.16
2023-02-25T15:51:12.037Z,93460.63
2023-02-25T15:53:44.795Z,93469.88
2023-02-25T15:56:11.648Z,93477.28
2023-02-25T15:58:51.722Z,93473.50
2023-02-25T16:01:24.808Z,93487.78
2023-02-25T16:03:52.832Z,93489.06
2023-02-25T16:06:32.374Z,93495.41
2023-02-25T16:09:14.482Z,93498.59
2023-02-25T16:11:51.800Z,93494.19
2023-02-25T16:14:28.001Z,93506.53
2023-02-25T16:17:04.347Z,93506.19
2023-02-25T16:19:37.162Z,93518.31
2023-02-25T16:22:12.831Z,93521.50
2023-02-25T16:24:50.258Z,93525.81
2023-02-25T16:27:26.060Z,93532.41
2023-02-25T16:30:08.619Z,93531.59
2023-02-25T16:33:30.635Z,93524.00
2023-02-25T16:36:11.158Z,93530.97
2023-02-25T16:39:16.477Z,93535.63
2023-02-25T16:41:43.897Z,93548.06
2023-02-25T16:44:28.780Z,93548.59
2023-02-25T16:46:56.468Z,93549.72
2023-02-25T16:49:34.056Z,93548.88
2023-02-25T16:52:01.808Z,93549.63
2023-02-25T16:54:37.623Z,93556.59
2023-02-25T16:57:07.207Z,93567.75
2023-02-25T16:59:36.994Z,93574.34
2023-02-25T17:02:24.866Z,93576.16
2023-02-25T17:04:55.891Z,93580.97
2023-02-25T17:07:27.923Z,93580.16
2023-02-25T17:10:02.114Z,93583.56
2023-02-25T17:12:45.735Z,93588.59
2023-02-25T17:15:29.740Z,93588.13
2023-02-25T17:18:24.439Z,93590.44
2023-02-25T17:21:00.465Z,93586.06
2023-02-25T17:23:28.003Z,93574.72
2023-02-25T17:25:55.404Z,93585.53
2023-02-25T17:28:30.893Z,93583.13
2023-02-25T17:31:18.887Z,93589.66
2023-02-25T17:33:53.069Z,93587.84
2023-02-25T17:36:25.692Z,93592.06
2023-02-25T17:39:00.927Z,93601.44
2023-02-25T17:41:28.973Z,93608.03
2023-02-25T17:43:56.305Z,93605.09
2023-02-25T17:46:43.864Z,93606.09
2023-02-25T17:49:26.592Z,93599.94
2023-02-25T17:51:57.717Z,93608.03
2023-02-25T17:54:28.873Z,93603.84
2023-02-25T17:57:01.577Z,93609.66
2023-02-25T17:59:36.417Z,93601.09
2023-02-25T18:02:33.117Z,93604.47
2023-02-25T18:05:11.859Z,93608.03
2023-02-25T18:08:03.641Z,93608.56
2023-02-25T18:10:33.931Z,93610.63
2023-02-25T18:13:04.499Z,93612.34
2023-02-25T18:15:34.157Z,93614.41
2023-02-25T18:18:07.375Z,93605.63
2023-02-25T18:20:37.036Z,93614.41
2023-02-25T18:23:09.033Z,93612.97
2023-02-25T18:25:43.156Z,93617.38
2023-02-25T18:28:21.821Z,93624.75
2023-02-25T18:30:50.702Z,93623.59
2023-02-25T18:33:18.684Z,93626.03
2023-02-25T18:35:49.142Z,93633.25
2023-02-25T18:38:19.932Z,93627.16
2023-02-25T18:40:48.780Z,93630.56
2023-02-25T18:43:18.755Z,93629.94
2023-02-25T18:45:46.541Z,93634.69
2023-02-25T18:48:14.286Z,93640.56
2023-02-25T18:50:44.387Z,93649.16
2023-02-25T18:53:22.785Z,93636.91
2023-02-25T18:55:51.958Z,93647.38
2023-02-25T18:58:24.733Z,93645.31
2023-02-25T19:00:56.678Z,93643.16
2023-02-25T19:03:32.708Z,93645.41
2023-02-25T19:05:59.894Z,93647.38
2023-02-25T19:08:26.947Z,93648.72
2023-02-25T19:10:54.569Z,93654.50
2023-02-25T19:13:40.544Z,93658.38
2023-02-25T19:16:08.188Z,93651.75
2023-02-25T19:18:36.697Z,93655.94
2023-02-25T19:21:06.212Z,93648.34
2023-02-25T19:23:33.513Z,93662.72
2023-02-25T19:26:01.222Z,93657.72
2023-02-25T19:28:28.345Z,93660.31
2023-02-25T19:30:55.576Z,93667.31
2023-02-25T19:33:22.692Z,93663.91
2023-02-25T19:35:49.839Z,93670.31
2023-02-25T19:38:19.641Z,93675.16
2023-02-25T19:40:48.000Z,93674.38
2023-02-25T19:43:16.826Z,93673.38
2023-02-25T19:45:44.297Z,93675.69
2023-02-25T19:48:11.520Z,93683.47
2023-02-25T19:50:41.145Z,93676.06
2023-02-25T19:53:09.109Z,93683.91
2023-02-25T19:55:36.203Z,93680.41
2023-02-25T19:58:03.334Z,93688.69
2023-02-25T20:00:30.732Z,93694.25
2023-02-25T20:02:58.021Z,93684.84
2023-02-25T20:05:25.607Z,93687.63
2023-02-25T20:07:52.662Z,93688.66
2023-02-25T20:10:21.819Z,93694.34
2023-02-25T20:12:48.836Z,93699.09
2023-02-25T20:15:16.828Z,93696.69
2023-02-25T20:17:46.153Z,93693.97
2023-02-25T20:20:15.918Z,93699.97
2023-02-25T20:22:43.415Z,93703.00
2023-02-25T20:25:13.643Z,93700.56
2023-02-25T20:27:43.420Z,93706.22
2023-02-25T20:30:15.138Z,93703.09
2023-02-25T20:32:44.458Z,93706.59
2023-02-25T20:35:20.420Z,93710.47
2023-02-25T20:38:24.305Z,93723.06
2023-02-25T20:40:51.368Z,93720.47
2023-02-25T20:43:18.614Z,93714.31
2023-02-25T20:45:45.807Z,93722.72
2023-02-25T20:48:30.316Z,93724.97
2023-02-25T20:50:58.337Z,93720.41
2023-02-25T20:53:25.492Z,93719.78
2023-02-25T20:55:56.064Z,93737.22
2023-02-25T20:58:23.043Z,93740.31
2023-02-25T21:00:50.060Z,93735.13
2023-02-25T21:03:17.139Z,93739.97
2023-02-25T21:05:44.017Z,93745.63
2023-02-25T21:08:11.021Z,93735.59
2023-02-25T21:10:37.927Z,93743.38
2023-02-25T21:13:04.928Z,93737.72
2023-02-25T21:15:32.069Z,93743.38
2023-02-25T21:17:59.162Z,93739.19
2023-02-25T21:20:26.300Z,93741.41
2023-02-25T21:22:53.322Z,93747.41
2023-02-25T21:25:20.259Z,93743.66
2023-02-25T21:27:47.165Z,93739.34
2023-02-25T21:30:14.425Z,93745.22
2023-02-25T21:32:41.324Z,93737.81
2023-02-25T21:35:10.574Z,93748.22
2023-02-25T21:37:37.754Z,93742.91
2023-02-25T21:40:05.319Z,93738.44
2023-02-25T21:42:32.369Z,93745.44
2023-02-25T21:44:59.482Z,93753.78
2023-02-25T21:47:26.565Z,93752.88
2023-02-25T21:49:54.917Z,93750.13
2023-02-25T21:52:21.898Z,93752.75
2023-02-25T21:54:49.274Z,93743.41
2023-02-25T21:57:16.378Z,93738.06
2023-02-25T21:59:43.424Z,93747.13
2023-02-25T22:02:10.913Z,93741.19
2023-02-25T22:04:37.816Z,93735.28
2023-02-25T22:07:04.878Z,93742.94
2023-02-25T22:09:31.867Z,93745.59
2023-02-25T22:11:58.979Z,93754.78
2023-02-25T22:14:26.241Z,93744.44
2023-02-25T22:16:53.196Z,93748.00
2023-02-25T22:19:20.318Z,93754.59
2023-02-25T22:21:47.315Z,93744.94
2023-02-25T22:24:14.368Z,93761.41
2023-02-25T22:26:41.620Z,93768.38
2023-02-25T22:29:09.854Z,93767.06
2023-02-25T22:31:37.321Z,93763.34
2023-02-25T22:34:05.416Z,93768.50
2023-02-25T22:36:32.624Z,93768.38
2023-02-25T22:38:59.605Z,93777.88
2023-02-25T22:41:29.247Z,93784.84
2023-02-25T22:43:58.441Z,93781.91
2023-02-25T22:46:29.012Z,93785.00
2023-02-25T22:48:57.000Z,93790.34
2023-02-25T22:51:36.636Z,93787.13
2023-02-25T22:54:04.829Z,93795.69
2023-02-25T22:56:32.188Z,93797.47
2023-02-25T22:58:59.645Z,93800.84
2023-02-25T23:01:28.028Z,93804.75
2023-02-25T23:03:58.104Z,93798.59
2023-02-25T23:06:42.151Z,93809.56
2023-02-25T23:09:10.734Z,93804.25
2023-02-25T23:11:41.763Z,93812.19
2023-02-25T23:14:08.857Z,93818.31
2023-02-25T23:16:43.476Z,93817.47
2023-02-25T23:19:15.896Z,93825.41
2023-02-25T23:21:43.516Z,93827.69
2023-02-25T23:24:18.378Z,93830.75
2023-02-25T23:26:47.796Z,93833.63
2023-02-25T23:29:15.011Z,93833.63
2023-02-25T23:31:45.785Z,93831.06
2023-02-25T23:34:18.149Z,93837.19
2023-02-25T23:36:45.646Z,93839.94
2023-02-25T23:39:14.321Z,93829.94
2023-02-25T23:41:41.829Z,93839.94
2023-02-25T23:44:09.514Z,93843.16
2023-02-25T23:46:37.541Z,93842.03
2023-02-25T23:49:07.394Z,93846.88
2023-02-25T23:51:36.349Z,93839.28
2023-02-25T23:54:05.914Z,93841.22
2023-02-25T23:56:34.305Z,93846.38
2023-02-25T23:59:01.690Z,93848.00
